createdAt,value
2019-02-04T00:00:01.529Z,16.90
2019-02-04T00:02:28.115Z,19.30
2019-02-04T00:04:54.589Z,16.57
2019-02-04T00:07:20.813Z,15.73
2019-02-04T00:09:46.895Z,17.17
2019-02-04T00:12:13.137Z,15.57
2019-02-04T00:14:40.301Z,15.50
2019-02-04T00:17:06.661Z,15.57
2019-02-04T00:19:33.074Z,17.65
2019-02-04T00:21:59.238Z,18.20
2019-02-04T00:24:25.857Z,15.08
2019-02-04T00:26:52.062Z,21.63
2019-02-04T00:29:18.102Z,18.65
2019-02-04T00:31:44.199Z,13.93
2019-02-04T00:34:11.303Z,15.18
2019-02-04T00:36:37.336Z,16.57
2019-02-04T00:39:05.826Z,19.45
2019-02-04T00:41:31.986Z,18.45
2019-02-04T00:43:58.005Z,15.38
2019-02-04T00:46:25.348Z,13.72
2019-02-04T00:48:51.358Z,16.77
2019-02-04T00:51:17.437Z,16.95
2019-02-04T00:53:43.611Z,19.40
2019-02-04T00:56:11.369Z,15.65
2019-02-04T00:58:37.471Z,12.45
2019-02-04T01:01:04.327Z,18.23
2019-02-04T01:03:30.572Z,14.68
2019-02-04T01:05:56.725Z,15.13
2019-02-04T01:08:22.891Z,13.62
2019-02-04T01:10:49.098Z,22.42
2019-02-04T01:13:15.222Z,16.35
2019-02-04T01:15:41.345Z,16.65
2019-02-04T01:18:10.620Z,15.72
2019-02-04T01:20:37.030Z,13.25
2019-02-04T01:23:03.272Z,17.45
2019-02-04T01:25:29.350Z,18.67
2019-02-04T01:27:55.503Z,16.32
2019-02-04T01:30:23.034Z,16.23
2019-02-04T01:32:49.303Z,17.95
2019-02-04T01:35:15.333Z,14.73
2019-02-04T01:37:41.871Z,17.30
2019-02-04T01:40:14.360Z,16.20
2019-02-04T01:42:40.421Z,14.50
2019-02-04T01:45:07.354Z,16.97
2019-02-04T01:47:33.537Z,17.25
2019-02-04T01:49:59.544Z,13.70
2019-02-04T01:52:25.605Z,14.75
2019-02-04T01:54:52.235Z,21.52
2019-02-04T01:57:18.263Z,13.55
2019-02-04T01:59:44.318Z,22.75
2019-02-04T02:02:10.654Z,13.25
2019-02-04T02:04:36.777Z,16.52
2019-02-04T02:07:03.333Z,17.37
2019-02-04T02:09:29.416Z,19.27
2019-02-04T02:11:56.775Z,17.20
2019-02-04T02:14:23.214Z,20.43
2019-02-04T02:16:49.271Z,17.75
2019-02-04T02:19:15.377Z,23.02
2019-02-04T02:21:41.477Z,16.23
2019-02-04T02:24:07.708Z,17.80
2019-02-04T02:26:34.237Z,17.52
2019-02-04T02:29:00.383Z,20.40
2019-02-04T02:31:28.003Z,14.70
2019-02-04T02:33:54.307Z,16.48
2019-02-04T02:36:20.365Z,13.45
2019-02-04T02:38:46.712Z,18.82
2019-02-04T02:41:14.144Z,18.50
2019-02-04T02:43:40.293Z,19.77
2019-02-04T02:46:07.800Z,20.12
2019-02-04T02:48:35.007Z,19.77
2019-02-04T02:51:01.356Z,20.25
2019-02-04T02:53:27.432Z,19.60
2019-02-04T02:55:53.507Z,18.37
2019-02-04T02:58:19.631Z,23.00
2019-02-04T03:00:45.812Z,14.58
2019-02-04T03:03:11.880Z,20.55
2019-02-04T03:05:38.317Z,14.87
2019-02-04T03:08:04.512Z,17.80
2019-02-04T03:10:31.265Z,18.50
2019-02-04T03:12:57.395Z,18.52
2019-02-04T03:15:23.563Z,15.93
2019-02-04T03:17:52.471Z,23.98
2019-02-04T03:20:17.939Z,15.80
2019-02-04T03:22:44.097Z,17.62
2019-02-04T03:25:13.130Z,17.92
2019-02-04T03:27:40.379Z,15.03
2019-02-04T03:30:19.201Z,18.48
2019-02-04T03:32:46.910Z,18.62
2019-02-04T03:35:13.707Z,17.00
2019-02-04T03:37:39.992Z,20.08
2019-02-04T03:40:09.850Z,17.52
2019-02-04T03:42:36.144Z,15.63
2019-02-04T03:45:03.487Z,16.82
2019-02-04T03:47:30.010Z,22.02
2019-02-04T03:49:56.031Z,18.67
2019-02-04T03:52:22.153Z,21.33
2019-02-04T03:54:48.444Z,22.85
2019-02-04T03:57:14.589Z,22.15
2019-02-04T03:59:41.870Z,17.23
2019-02-04T04:02:08.562Z,21.12
2019-02-04T04:04:34.709Z,20.82
2019-02-04T04:07:00.799Z,18.35
2019-02-04T04:09:26.914Z,23.92
2019-02-04T04:11:55.784Z,21.70
2019-02-04T04:14:22.167Z,17.48
2019-02-04T04:16:48.706Z,21.42
2019-02-04T04:19:14.781Z,17.00
2019-02-04T04:21:40.842Z,21.12
2019-02-04T04:24:06.924Z,20.82
2019-02-04T04:26:33.467Z,15.58
2019-02-04T04:28:59.470Z,19.92
2019-02-04T04:31:25.511Z,19.73
2019-02-04T04:33:51.622Z,16.32
2019-02-04T04:36:18.076Z,23.18
2019-02-04T04:38:45.366Z,20.97
2019-02-04T04:41:11.430Z,20.80
2019-02-04T04:43:37.504Z,22.27
2019-02-04T04:46:06.937Z,19.35
2019-02-04T04:48:32.973Z,20.65
2019-02-04T04:50:59.024Z,20.70
2019-02-04T04:53:26.125Z,20.55
2019-02-04T04:55:53.587Z,18.48
2019-02-04T04:58:19.631Z,17.52
2019-02-04T05:00:45.834Z,21.27
2019-02-04T05:03:12.159Z,21.60
2019-02-04T05:05:38.633Z,19.98
2019-02-04T05:08:04.783Z,20.02
2019-02-04T05:10:30.837Z,18.25
2019-02-04T05:12:56.962Z,23.18
2019-02-04T05:15:24.793Z,21.75
2019-02-04T05:17:52.623Z,19.57
2019-02-04T05:20:20.735Z,16.57
2019-02-04T05:22:49.148Z,19.00
2019-02-04T05:25:16.095Z,18.70
2019-02-04T05:27:42.128Z,21.93
2019-02-04T05:30:17.368Z,20.12
2019-02-04T05:32:43.728Z,23.57
2019-02-04T05:35:10.027Z,23.42
2019-02-04T05:37:36.256Z,21.27
2019-02-04T05:40:07.419Z,20.35
2019-02-04T05:42:34.657Z,19.60
2019-02-04T05:45:03.205Z,24.90
2019-02-04T05:47:29.296Z,21.75
2019-02-04T05:49:58.667Z,22.77
2019-02-04T05:52:26.095Z,20.60
2019-02-04T05:54:52.217Z,19.27
2019-02-04T05:57:19.275Z,20.70
2019-02-04T05:59:45.298Z,18.15
2019-02-04T06:02:13.052Z,21.07
2019-02-04T06:04:39.168Z,21.68
2019-02-04T06:07:05.218Z,20.15
2019-02-04T06:09:33.258Z,17.85
2019-02-04T06:11:59.477Z,20.25
2019-02-04T06:14:25.512Z,21.87
2019-02-04T06:16:53.531Z,21.55
2019-02-04T06:19:19.570Z,23.15
2019-02-04T06:21:45.975Z,21.35
2019-02-04T06:24:12.020Z,21.40
2019-02-04T06:26:38.081Z,24.82
2019-02-04T06:29:04.217Z,27.62
2019-02-04T06:31:30.248Z,29.02
2019-02-04T06:33:56.412Z,22.98
2019-02-04T06:36:22.625Z,20.00
2019-02-04T06:38:48.676Z,24.80
2019-02-04T06:41:14.845Z,21.82
2019-02-04T06:43:42.054Z,23.45
2019-02-04T06:46:08.143Z,19.90
2019-02-04T06:48:36.831Z,20.52
2019-02-04T06:51:02.854Z,21.50
2019-02-04T06:53:28.956Z,21.00
2019-02-04T06:55:55.011Z,21.77
2019-02-04T06:58:21.661Z,20.60
2019-02-04T07:00:47.915Z,24.92
2019-02-04T07:03:14.415Z,24.35
2019-02-04T07:05:43.936Z,20.72
2019-02-04T07:08:08.613Z,19.75
2019-02-04T07:10:34.744Z,22.77
2019-02-04T07:13:02.509Z,22.70
2019-02-04T07:15:28.583Z,24.35
2019-02-04T07:17:55.449Z,62.55
2019-02-04T07:20:23.943Z,39.80
2019-02-04T07:22:50.584Z,41.83
2019-02-04T07:25:17.286Z,29.23
2019-02-04T07:27:43.482Z,38.70
2019-02-04T07:30:17.639Z,20.55
2019-02-04T07:32:44.600Z,23.52
2019-02-04T07:35:14.647Z,18.77
2019-02-04T07:37:40.818Z,19.85
2019-02-04T07:40:19.942Z,24.07
2019-02-04T07:42:47.026Z,22.13
2019-02-04T07:45:13.220Z,23.98
2019-02-04T07:47:41.170Z,27.62
2019-02-04T07:50:10.254Z,23.62
2019-02-04T07:52:36.509Z,30.92
2019-02-04T07:55:05.341Z,22.55
2019-02-04T07:57:31.528Z,21.90
2019-02-04T07:59:58.528Z,25.25
2019-02-04T08:02:24.631Z,24.37
2019-02-04T08:04:52.165Z,24.47
2019-02-04T08:07:18.467Z,30.32
2019-02-04T08:09:44.615Z,24.57
2019-02-04T08:12:10.852Z,26.15
2019-02-04T08:14:36.966Z,23.50
2019-02-04T08:17:03.230Z,26.23
2019-02-04T08:19:29.591Z,21.10
2019-02-04T08:21:57.598Z,24.92
2019-02-04T08:24:24.065Z,24.00
2019-02-04T08:26:50.189Z,22.20
2019-02-04T08:29:16.384Z,25.90
2019-02-04T08:31:43.875Z,25.17
2019-02-04T08:34:10.408Z,22.70
2019-02-04T08:36:43.244Z,24.50
2019-02-04T08:39:06.234Z,23.20
2019-02-04T08:41:33.891Z,22.05
2019-02-04T08:44:00.406Z,27.77
2019-02-04T08:46:28.523Z,21.73
2019-02-04T08:48:54.677Z,21.62
2019-02-04T08:51:21.040Z,20.68
2019-02-04T08:53:52.285Z,21.05
2019-02-04T08:56:18.402Z,25.50
2019-02-04T08:58:44.475Z,25.75
2019-02-04T09:01:10.553Z,29.10
2019-02-04T09:03:37.141Z,27.27
2019-02-04T09:06:04.469Z,24.43
2019-02-04T09:08:39.654Z,27.07
2019-02-04T09:11:05.850Z,25.60
2019-02-04T09:13:31.960Z,21.50
2019-02-04T09:15:59.293Z,23.35
2019-02-04T09:18:25.440Z,28.45
2019-02-04T09:20:52.402Z,24.98
2019-02-04T09:23:19.103Z,22.35
2019-02-04T09:25:45.457Z,26.90
2019-02-04T09:28:11.691Z,27.48
2019-02-04T09:30:37.836Z,29.60
2019-02-04T09:33:04.180Z,26.37
2019-02-04T09:35:30.686Z,22.67
2019-02-04T09:37:57.023Z,25.27
2019-02-04T09:40:35.810Z,27.82
2019-02-04T09:43:02.544Z,26.23
2019-02-04T09:45:28.707Z,24.63
2019-02-04T09:47:55.118Z,23.35
2019-02-04T09:50:27.776Z,27.93
2019-02-04T09:52:54.177Z,28.75
2019-02-04T09:55:23.087Z,29.52
2019-02-04T09:57:49.637Z,30.85
2019-02-04T10:00:21.396Z,25.27
2019-02-04T10:02:47.530Z,26.85
2019-02-04T10:05:17.296Z,22.45
2019-02-04T10:07:43.938Z,29.25
2019-02-04T10:10:14.680Z,28.10
2019-02-04T10:12:40.845Z,27.93
2019-02-04T10:15:10.842Z,24.18
2019-02-04T10:17:37.103Z,24.37
2019-02-04T10:20:07.117Z,24.40
2019-02-04T10:22:33.375Z,25.62
2019-02-04T10:24:59.552Z,25.35
2019-02-04T10:27:26.054Z,28.95
2019-02-04T10:29:52.992Z,28.45
2019-02-04T10:32:19.294Z,23.98
2019-02-04T10:34:45.586Z,24.63
2019-02-04T10:37:13.523Z,23.83
2019-02-04T10:39:39.729Z,23.22
2019-02-04T10:42:08.873Z,22.83
2019-02-04T10:44:35.352Z,24.97
2019-02-04T10:47:01.941Z,23.27
2019-02-04T10:49:28.053Z,23.97
2019-02-04T10:51:54.165Z,25.37
2019-02-04T10:54:21.770Z,22.87
2019-02-04T10:56:47.904Z,24.33
2019-02-04T10:59:19.123Z,25.50
2019-02-04T11:01:45.232Z,26.50
2019-02-04T11:04:11.828Z,25.13
2019-02-04T11:06:38.270Z,21.37
2019-02-04T11:09:06.540Z,27.10
2019-02-04T11:11:32.991Z,20.00
2019-02-04T11:13:59.090Z,31.63
2019-02-04T11:16:25.375Z,25.37
2019-02-04T11:18:51.559Z,19.90
2019-02-04T11:21:17.693Z,22.43
2019-02-04T11:23:43.856Z,22.53
2019-02-04T11:26:10.441Z,22.90
2019-02-04T11:28:37.646Z,21.80
2019-02-04T11:31:03.908Z,22.20
2019-02-04T11:33:30.092Z,25.60
2019-02-04T11:35:56.256Z,21.20
2019-02-04T11:38:22.352Z,25.37
2019-02-04T11:40:49.251Z,21.90
2019-02-04T11:43:15.347Z,22.77
2019-02-04T11:45:41.589Z,22.73
2019-02-04T11:48:10.429Z,20.93
2019-02-04T11:50:36.795Z,22.20
2019-02-04T11:53:03.193Z,21.27
2019-02-04T11:55:30.830Z,23.90
2019-02-04T11:57:56.934Z,20.93
2019-02-04T12:00:28.805Z,21.17
2019-02-04T12:02:56.538Z,23.90
2019-02-04T12:05:23.096Z,20.70
2019-02-04T12:07:49.257Z,20.13
2019-02-04T12:10:18.962Z,21.33
2019-02-04T12:12:44.972Z,17.67
2019-02-04T12:15:17.588Z,19.63
2019-02-04T12:17:43.684Z,20.93
2019-02-04T12:20:13.655Z,19.20
2019-02-04T12:22:39.911Z,19.27
2019-02-04T12:25:09.272Z,23.73
2019-02-04T12:27:35.345Z,17.67
2019-02-04T12:30:02.769Z,21.30
2019-02-04T12:32:29.324Z,15.43
2019-02-04T12:34:55.400Z,18.10
2019-02-04T12:37:21.509Z,16.53
2019-02-04T12:39:47.657Z,16.13
2019-02-04T12:42:13.696Z,15.30
2019-02-04T12:44:39.955Z,26.77
2019-02-04T12:47:06.649Z,17.90
2019-02-04T12:49:32.781Z,18.53
2019-02-04T12:52:01.152Z,13.97
2019-02-04T12:54:27.208Z,18.00
2019-02-04T12:56:53.269Z,15.67
2019-02-04T12:59:22.790Z,15.80
2019-02-04T13:01:48.974Z,15.47
2019-02-04T13:04:15.025Z,14.77
2019-02-04T13:06:41.341Z,18.90
2019-02-04T13:09:08.152Z,14.87
2019-02-04T13:11:34.295Z,16.23
2019-02-04T13:14:00.527Z,20.50
2019-02-04T13:16:26.530Z,14.53
2019-02-04T13:18:52.807Z,13.70
2019-02-04T13:21:18.965Z,15.87
2019-02-04T13:23:45.007Z,11.30
2019-02-04T13:26:11.047Z,13.83
2019-02-04T13:28:37.042Z,10.13
2019-02-04T13:31:03.296Z,10.67
2019-02-04T13:33:29.538Z,10.57
2019-02-04T13:35:55.529Z,8.70
2019-02-04T13:38:21.864Z,10.70
2019-02-04T13:40:47.992Z,11.17
2019-02-04T13:43:14.095Z,7.73
2019-02-04T13:45:40.390Z,13.03
2019-02-04T13:48:08.431Z,10.90
2019-02-04T13:50:34.954Z,10.53
2019-02-04T13:53:01.025Z,6.67
2019-02-04T13:55:32.313Z,7.43
2019-02-04T13:57:58.786Z,7.80
2019-02-04T14:00:27.133Z,7.63
2019-02-04T14:02:59.496Z,9.00
2019-02-04T14:05:22.133Z,7.47
2019-02-04T14:07:48.202Z,9.70
2019-02-04T14:10:16.877Z,7.07
2019-02-04T14:12:45.510Z,10.67
2019-02-04T14:15:14.282Z,7.67
2019-02-04T14:17:40.324Z,12.83
2019-02-04T14:20:10.069Z,8.50
2019-02-04T14:22:36.081Z,6.93
2019-02-04T14:25:04.970Z,7.63
2019-02-04T14:27:31.082Z,7.10
2019-02-04T14:30:00.689Z,7.23
2019-02-04T14:32:26.784Z,8.00
2019-02-04T14:34:54.684Z,9.97
2019-02-04T14:37:20.924Z,7.00
2019-02-04T14:39:46.953Z,7.20
2019-02-04T14:42:13.917Z,11.07
2019-02-04T14:44:41.574Z,9.60
2019-02-04T14:47:11.412Z,8.33
2019-02-04T14:49:47.089Z,8.83
2019-02-04T14:52:38.193Z,9.40
2019-02-04T14:55:16.817Z,6.80
2019-02-04T14:57:52.368Z,8.20
2019-02-04T15:00:22.192Z,6.87
2019-02-04T15:03:19.397Z,9.17
2019-02-04T15:05:40.629Z,11.10
2019-02-04T15:08:33.548Z,9.97
2019-02-04T15:11:03.805Z,9.60
2019-02-04T15:13:42.224Z,9.93
2019-02-04T15:16:19.420Z,12.80
2019-02-04T15:19:04.013Z,12.20
2019-02-04T15:21:43.089Z,8.83
2019-02-04T15:24:29.758Z,9.83
2019-02-04T15:26:59.623Z,9.53
2019-02-04T15:29:29.425Z,7.87
2019-02-04T15:32:11.448Z,9.47
2019-02-04T15:34:49.911Z,7.70
2019-02-04T15:37:41.157Z,7.90
2019-02-04T15:40:16.986Z,9.33
2019-02-04T15:43:09.463Z,7.47
2019-02-04T15:45:48.476Z,6.07
2019-02-04T15:48:16.702Z,9.07
2019-02-04T15:51:08.972Z,6.57
2019-02-04T15:53:35.054Z,8.40
2019-02-04T15:56:01.452Z,7.97
2019-02-04T15:58:27.881Z,6.00
2019-02-04T16:00:53.992Z,5.50
2019-02-04T16:03:20.251Z,5.27
2019-02-04T16:05:46.527Z,8.10
2019-02-04T16:08:12.607Z,7.10
2019-02-04T16:10:38.671Z,7.80
2019-02-04T16:13:04.881Z,6.30
2019-02-04T16:15:31.059Z,5.93
2019-02-04T16:17:57.652Z,4.67
2019-02-04T16:20:23.869Z,14.00
2019-02-04T16:22:57.822Z,5.90
2019-02-04T16:25:17.982Z,6.27
2019-02-04T16:27:44.068Z,9.27
2019-02-04T16:30:13.506Z,10.57
2019-02-04T16:32:39.671Z,7.20
2019-02-04T16:35:08.565Z,5.43
2019-02-04T16:37:34.713Z,9.70
2019-02-04T16:40:00.815Z,5.17
2019-02-04T16:42:27.079Z,6.23
2019-02-04T16:44:55.120Z,4.97
2019-02-04T16:47:21.342Z,11.13
2019-02-04T16:49:47.439Z,5.57
2019-02-04T16:52:15.892Z,7.93
2019-02-04T16:54:42.434Z,8.20
2019-02-04T16:57:08.529Z,11.07
2019-02-04T16:59:34.570Z,5.23
2019-02-04T17:02:00.610Z,6.43
2019-02-04T17:04:26.682Z,6.30
2019-02-04T17:06:52.856Z,10.53
2019-02-04T17:09:19.199Z,11.80
2019-02-04T17:11:45.645Z,6.63
2019-02-04T17:14:12.262Z,6.10
2019-02-04T17:16:38.256Z,8.70
2019-02-04T17:19:04.432Z,7.40
2019-02-04T17:21:30.610Z,7.90
2019-02-04T17:23:56.978Z,11.37
2019-02-04T17:26:23.040Z,9.00
2019-02-04T17:28:49.079Z,7.80
2019-02-04T17:31:15.178Z,11.33
2019-02-04T17:33:41.302Z,10.67
2019-02-04T17:36:07.769Z,7.57
2019-02-04T17:38:35.367Z,7.47
2019-02-04T17:41:02.086Z,8.37
2019-02-04T17:43:28.225Z,7.43
2019-02-04T17:45:54.978Z,12.07
2019-02-04T17:48:22.171Z,7.00
2019-02-04T17:50:48.359Z,7.57
2019-02-04T17:53:14.945Z,7.27
2019-02-04T17:55:41.021Z,10.83
2019-02-04T17:58:07.280Z,7.67
2019-02-04T18:00:35.411Z,7.70
2019-02-04T18:03:01.520Z,9.67
2019-02-04T18:05:27.649Z,11.60
2019-02-04T18:07:53.844Z,8.37
2019-02-04T18:10:19.959Z,10.10
2019-02-04T18:12:46.389Z,10.50
2019-02-04T18:15:15.756Z,11.43
2019-02-04T18:17:41.801Z,8.33
2019-02-04T18:20:10.172Z,9.73
2019-02-04T18:22:36.226Z,9.57
2019-02-04T18:25:05.382Z,10.33
2019-02-04T18:27:31.400Z,12.77
2019-02-04T18:29:57.513Z,8.30
2019-02-04T18:32:24.238Z,7.00
2019-02-04T18:34:51.224Z,8.90
2019-02-04T18:37:17.997Z,9.13
2019-02-04T18:39:44.163Z,8.80
2019-02-04T18:42:10.604Z,8.63
2019-02-04T18:44:37.265Z,11.63
2019-02-04T18:47:03.800Z,10.93
2019-02-04T18:49:30.012Z,7.93
2019-02-04T18:51:57.995Z,8.90
2019-02-04T18:54:24.464Z,8.33
2019-02-04T18:56:51.718Z,8.80
2019-02-04T18:59:17.964Z,9.13
2019-02-04T19:01:44.071Z,12.30
2019-02-04T19:04:10.586Z,14.07
2019-02-04T19:06:47.390Z,24.77
2019-02-04T19:09:06.728Z,30.50
2019-02-04T19:11:32.889Z,22.50
2019-02-04T19:13:58.997Z,38.00
2019-02-04T19:16:25.082Z,17.87
2019-02-04T19:18:51.248Z,9.90
2019-02-04T19:21:17.531Z,9.10
2019-02-04T19:23:43.977Z,13.03
2019-02-04T19:26:10.004Z,11.20
2019-02-04T19:28:37.151Z,10.40
2019-02-04T19:31:07.037Z,8.73
2019-02-04T19:33:33.379Z,13.03
2019-02-04T19:35:59.469Z,11.80
2019-02-04T19:38:25.695Z,10.73
2019-02-04T19:40:52.489Z,8.60
2019-02-04T19:43:18.512Z,11.43
2019-02-04T19:45:44.725Z,9.20
2019-02-04T19:48:10.757Z,12.20
2019-02-04T19:50:36.997Z,10.47
2019-02-04T19:53:03.819Z,8.37
2019-02-04T19:55:31.117Z,16.20
2019-02-04T19:57:59.212Z,16.93
2019-02-04T20:00:25.799Z,13.17
2019-02-04T20:02:52.728Z,10.87
2019-02-04T20:05:27.431Z,11.70
2019-02-04T20:07:54.114Z,13.43
2019-02-04T20:10:23.314Z,16.40
2019-02-04T20:12:53.333Z,9.07
2019-02-04T20:15:22.597Z,11.40
2019-02-04T20:17:50.418Z,11.90
2019-02-04T20:20:16.723Z,10.30
2019-02-04T20:22:43.595Z,10.70
2019-02-04T20:25:21.817Z,7.70
2019-02-04T20:27:47.907Z,12.10
2019-02-04T20:30:29.005Z,11.57
2019-02-04T20:32:55.267Z,8.33
2019-02-04T20:35:21.362Z,55.17
2019-02-04T20:37:47.433Z,70.40
2019-02-04T20:40:20.452Z,14.43
2019-02-04T20:42:46.548Z,15.83
2019-02-04T20:45:14.070Z,47.33
2019-02-04T20:47:40.895Z,22.87
2019-02-04T20:50:25.438Z,13.93
2019-02-04T20:52:51.530Z,15.40
2019-02-04T20:55:17.732Z,12.60
2019-02-04T20:57:43.830Z,10.70
2019-02-04T21:00:16.005Z,14.63
2019-02-04T21:02:42.043Z,10.57
2019-02-04T21:05:09.133Z,12.03
2019-02-04T21:07:35.320Z,20.03
2019-02-04T21:10:02.307Z,18.07
2019-02-04T21:12:28.452Z,17.53
2019-02-04T21:14:55.114Z,14.80
2019-02-04T21:17:21.134Z,14.73
2019-02-04T21:19:47.598Z,14.40
2019-02-04T21:22:13.756Z,14.07
2019-02-04T21:24:39.751Z,10.40
2019-02-04T21:27:05.838Z,13.70
2019-02-04T21:29:31.922Z,12.53
2019-02-04T21:31:58.275Z,12.97
2019-02-04T21:34:24.344Z,10.90
2019-02-04T21:36:50.691Z,15.27
2019-02-04T21:39:17.392Z,14.80
2019-02-04T21:41:43.468Z,13.87
2019-02-04T21:44:09.523Z,9.33
2019-02-04T21:46:35.585Z,9.50
2019-02-04T21:49:01.683Z,12.17
2019-02-04T21:51:27.764Z,15.40
2019-02-04T21:53:54.073Z,12.10
2019-02-04T21:56:20.216Z,10.23
2019-02-04T21:58:46.262Z,10.87
2019-02-04T22:01:12.305Z,13.90
2019-02-04T22:03:38.346Z,11.03
2019-02-04T22:06:04.474Z,14.00
2019-02-04T22:08:30.547Z,11.47
2019-02-04T22:10:57.088Z,10.50
2019-02-04T22:13:23.109Z,11.50
2019-02-04T22:15:49.652Z,10.13
2019-02-04T22:18:15.852Z,14.90
2019-02-04T22:20:42.352Z,11.10
2019-02-04T22:23:08.500Z,14.10
2019-02-04T22:25:34.660Z,11.53
2019-02-04T22:28:00.743Z,10.00
2019-02-04T22:30:28.782Z,12.10
2019-02-04T22:32:54.875Z,10.77
2019-02-04T22:35:21.619Z,11.80
2019-02-04T22:37:49.207Z,11.70
2019-02-04T22:40:17.906Z,10.23
2019-02-04T22:42:43.932Z,10.50
2019-02-04T22:45:12.507Z,14.23
2019-02-04T22:47:38.575Z,12.63
2019-02-04T22:50:14.034Z,9.43
2019-02-04T22:52:40.136Z,12.17
2019-02-04T22:55:08.609Z,18.27
2019-02-04T22:57:37.166Z,12.73
2019-02-04T23:00:30.506Z,11.07
2019-02-04T23:02:59.446Z,12.90
2019-02-04T23:05:27.921Z,14.63
2019-02-04T23:07:58.330Z,12.70
2019-02-04T23:10:24.348Z,16.43
2019-02-04T23:12:51.951Z,12.73
2019-02-04T23:15:17.967Z,12.77
2019-02-04T23:17:44.237Z,11.03
2019-02-04T23:20:12.265Z,13.33
2019-02-04T23:22:38.314Z,14.47
2019-02-04T23:25:06.408Z,13.40
2019-02-04T23:27:32.513Z,11.57
2019-02-04T23:29:58.895Z,15.00
2019-02-04T23:32:26.468Z,14.20
2019-02-04T23:34:52.534Z,14.30
2019-02-04T23:37:18.595Z,15.87
2019-02-04T23:39:45.886Z,13.90
2019-02-04T23:42:13.929Z,18.33
2019-02-04T23:44:41.227Z,13.60
2019-02-04T23:47:07.467Z,14.27
2019-02-04T23:49:34.655Z,14.57
2019-02-04T23:52:01.405Z,14.07
2019-02-04T23:54:27.433Z,14.63
2019-02-04T23:56:53.567Z,17.80
2019-02-04T23:59:21.019Z,13.53
